Flight Track Log - Related Links

Times and Time Zones

All times are in EDT time to prevent confusion due to time zone crossing. See the UAL109 flight status page for this flight to view local times or setup timezone preferences in your user account.

Time Position Orientation Groundspeed Altitude Reporting Facility
EDT Latitude Longitude Course Direction KTS MPH feet Rate Location/Type
Sun 06:58:28 AM 55.9490 -3.3680 332° Northwest 3 3  Level FlightAware
Sun 06:58:58 AM 55.9500 -3.3690 331° Northwest 12 14 51 Level FlightAware
Sun 06:59:24 AM 55.9510 -3.3670 48° Northeast 14 16 56 Level FlightAware
Sun 06:59:54 AM 55.9520 -3.3640 59° Northeast 14 16 61 Level FlightAware
Sun 07:00:19 AM 55.9530 -3.3610 59° Northeast 15 17 68 Level FlightAware
Sun 07:00:50 AM 55.9540 -3.3580 59° Northeast 16 18 75 Level FlightAware
Sun 07:01:18 AM 55.9550 -3.3550 59° Northeast 11 13 87 Level FlightAware
Sun 07:01:43 AM 55.9570 -3.3560 344° North 10 12 100 Level FlightAware
Sun 07:03:58 AM 55.9540 -3.3670 281° West 110 127 116 Level FlightAware
Sun 07:04:00 AM 55.9825 -3.8089 281° West  Level FlightAware
Sun 07:04:18 AM 55.9450 -3.3910 236° Southwest 168 193 300  Level FlightAware
Sun 07:04:50 AM 55.9330 -3.4260 239° Southwest 160 184 1,900 2,600 Climbing FlightAware
Sun 07:05:18 AM 55.9210 -3.4600 238° Southwest 169 194 2,900 1,765 Climbing FlightAware
Sun 07:05:58 AM 55.9050 -3.5150 243° Southwest 203 234 3,900 1,569 Climbing FlightAware
Sun 07:06:23 AM 55.9020 -3.5600 263° West 229 264 4,600 1,964 Climbing FlightAware
Sun 07:06:53 AM 55.8960 -3.6170 259° West 248 285 5,700 2,250 Climbing FlightAware
Sun 07:07:03 AM 55.8930 -3.6400 257° West 255 293 6,100 2,550 Climbing FlightAware
Sun 07:07:33 AM 55.8880 -3.6990 261° West 261 300 7,400 2,800 Climbing FlightAware
Sun 07:08:03 AM 55.8810 -3.7670 260° West 263 303 8,900 2,786 Climbing FlightAware
Sun 07:08:29 AM 55.8750 -3.8210 259° West 268 308 10,000 1,818 Climbing FlightAware
Sun 07:09:09 AM 55.8642 -3.9125 259° West 330 380 10,900 1,364 Climbing FlightAware
Sun 07:09:13 AM 55.8650 -3.9210 259° West 305 351 11,000 1,579 Climbing FlightAware
Sun 07:09:28 AM 55.8580 -3.9560 250° West 323 372 11,400 1,855 Climbing FlightAware
Sun 07:10:08 AM 55.8190 -4.0470 233° Southwest 344 396 12,700 1,850 Climbing FlightAware
Sun 07:11:15 AM 55.7550 -4.1740 233° Southwest 373 429 14,700 2,055 Climbing FlightAware
Sun 07:11:21 AM 55.7345 -4.2081 233° Southwest 396 456 15,200 2,478 Climbing FlightAware
Sun 07:12:01 AM 55.6920 -4.3060 230° Southwest 384 442 16,600 2,000 Climbing FlightAware
Sun 07:12:42 AM 55.6540 -4.4100 237° Southwest 388 447 17,900 1,926 Climbing FlightAware
Sun 07:13:22 AM 55.6220 -4.5260 244° Southwest 394 453 19,200 2,000 Climbing FlightAware
Sun 07:14:03 AM 55.5880 -4.6480 244° Southwest 400 460 20,600 1,814 Climbing FlightAware
Sun 07:14:48 AM 55.5520 -4.7810 244° Southwest 410 472 21,800 1,500 Climbing FlightAware
Sun 07:14:51 AM 55.5462 -4.7862 244° Southwest 440 506 21,800 1,636 Level FlightAware
Sun 07:15:21 AM 55.5210 -4.8759 244° Southwest 446 513 22,700 1,784 Climbing FlightAware
Sun 07:15:28 AM 55.5180 -4.9020 244° Southwest 415 478 22,900 1,532 Climbing FlightAware
Sun 07:16:08 AM 55.4840 -5.0230 244° Southwest 423 487 23,900 1,465 Climbing FlightAware
Sun 07:16:54 AM 55.4440 -5.1630 243° Southwest 429 494 25,000 1,395 Climbing FlightAware
Sun 07:17:34 AM 55.4080 -5.2900 244° Southwest 435 501 25,900 1,271 Climbing FlightAware
Sun 07:18:19 AM 55.3660 -5.4360 243° Southwest 444 511 26,800 1,084 Climbing FlightAware
Sun 07:18:57 AM 55.3289 -5.5504 243° Southwest 478 550 27,400 900 Climbing FlightAware
Sun 07:18:59 AM 55.3310 -5.5610 243° Southwest 452 520 27,400 1,277 Level FlightAware
Sun 07:19:44 AM 55.2870 -5.7110 243° Southwest 456 525 28,400 1,342 Climbing FlightAware
Sun 07:20:15 AM 55.2547 -5.8056 243° Southwest 484 557 29,100 1,463 Climbing FlightAware
Sun 07:20:25 AM 55.2470 -5.8480 243° Southwest 453 521 29,400 1,529 Climbing FlightAware
Sun 07:21:06 AM 55.2100 -5.9770 243° Southwest 451 519 30,400 1,485 Climbing FlightAware
Sun 07:22:02 AM 55.1550 -6.1620 243° Southwest 447 514 31,800 1,423 Climbing FlightAware
Sun 07:22:43 AM 55.1190 -6.2860 243° Southwest 445 512 32,700 1,256 Climbing FlightAware
Sun 07:22:45 AM 55.1128 -6.2863 243° Southwest 474 545 32,700 1,125 Level FlightAware
Sun 07:23:15 AM 55.0845 -6.3808 243° Southwest 470 541 33,300 1,200 Climbing FlightAware
Sun 07:23:25 AM 55.0780 -6.4220 243° Southwest 439 505 33,500 1,102 Climbing FlightAware
Sun 07:24:04 AM 55.0410 -6.5470 243° Southwest 440 506 34,200 975 Climbing FlightAware
Sun 07:24:45 AM 54.9996 -6.6630 243° Southwest 468 539 34,800 960 Climbing FlightAware
Sun 07:24:54 AM 54.9930 -6.7040 243° Southwest 439 505 35,000 245 Climbing FlightAware
Sun 07:25:34 AM 54.9540 -6.8310 242° Southwest 444 511 35,000  Level FlightAware
Sun 07:26:15 AM 54.9142 -6.9451 242° Southwest 466 536 35,000  Level FlightAware
Sun 07:26:15 AM 54.9170 -6.9570 242° Southwest 440 506 35,000 800 Level FlightAware
Sun 07:26:45 AM 54.8919 -7.0433 242° Southwest 466 536 35,400 923 Climbing FlightAware
Sun 07:26:54 AM 54.8870 -7.0900 242° Southwest 440 506 35,600 735 Climbing FlightAware
Sun 07:27:34 AM 54.8610 -7.2210 251° West 441 507 36,000 320 Climbing FlightAware
Sun 07:28:09 AM 54.8370 -7.3400 251° West 442 509 36,000  Level FlightAware
Sun 07:28:15 AM 54.8325 -7.3422 251° West 466 536 36,000  Level FlightAware
Sun 07:28:50 AM 54.8091 -7.4615 251° West 466 536 36,000  Level FlightAware
Sun 07:28:54 AM 54.8080 -7.4880 251° West 442 509 36,000  Level FlightAware
Sun 07:29:34 AM 54.7820 -7.6210 251° West 442 509 36,000  Level FlightAware
Sun 07:30:06 AM 54.7620 -7.7230 251° West 442 509 36,000  Level FlightAware
Sun 07:30:26 AM 54.7458 -7.7804 251° West 464 534 36,000  Level FlightAware
Sun 07:30:56 AM 54.7259 -7.8799 251° West 464 534 36,000  Level FlightAware
Sun 07:31:08 AM 54.7190 -7.9350 251° West 441 507 36,000  Level FlightAware
Sun 07:31:53 AM 54.6890 -8.0840 251° West 442 509 36,000  Level FlightAware
Sun 07:32:26 AM 54.6655 -8.1776 251° West 464 534 36,000  Level FlightAware
Sun 07:32:33 AM 54.6620 -8.2170 251° West 441 507 36,000  Level FlightAware
Sun 07:33:09 AM 54.6370 -8.3370 250° West 441 507 36,000  Level FlightAware
Sun 07:33:54 AM 54.6060 -8.4860 250° West 442 509 36,000  Level FlightAware
Sun 07:33:56 AM 54.6042 -8.4743 250° West 464 534 36,000  Level FlightAware
Sun 07:34:26 AM 54.5838 -8.5734 250° West 464 534 36,000  Level FlightAware
Sun 07:34:39 AM 54.5750 -8.6340 250° West 440 506 36,000  Level FlightAware
Sun 07:35:20 AM 54.5460 -8.7690 250° West 440 506 36,000  Level FlightAware
Sun 07:35:59 AM 54.5180 -8.8990 250° West 440 506 36,000  Level FlightAware
Sun 07:36:02 AM 54.5164 -8.8887 250° West 464 534 36,000  Level FlightAware
Sun 07:36:32 AM 54.4951 -8.9874 250° West 464 534 36,000  Level FlightAware
Sun 07:36:45 AM 54.4860 -9.0490 250° West 442 509 36,000  Level FlightAware
Sun 07:37:24 AM 54.4580 -9.1810 250° West 441 507 36,000  Level FlightAware
Sun 07:38:10 AM 54.4250 -9.3310 249° West 441 507 36,000  Level FlightAware
Sun 07:38:50 AM 54.3950 -9.4640 249° West 441 507 36,000  Level FlightAware
Sun 07:39:30 AM 54.3670 -9.5940 250° West 442 509 36,000  Level FlightAware
Sun 07:40:16 AM 54.3330 -9.7440 249° West 445 512 36,000  Level FlightAware
Sun 07:40:55 AM 54.3040 -9.8740 249° West 445 512 36,000  Level FlightAware
Sun 07:41:40 AM 54.2710 -10.0200 249° West 446 513 36,000  Level FlightAware
Sun 07:42:21 AM 54.2410 -10.1530 249° West 447 514 36,000  Level FlightAware
Sun 07:43:01 AM 54.2100 -10.2880 249° West 447 514 36,000  Level FlightAware
Sun 07:43:41 AM 54.1800 -10.4190 249° West 448 516 36,000  Level FlightAware
Sun 07:44:21 AM 54.1490 -10.5510 248° West 448 516 36,000  Level FlightAware
Sun 07:44:56 AM 54.1230 -10.6650 249° West 448 516 36,000  Level FlightAware
Sun 07:46:06 AM 54.0700 -10.8890 248° West 446 513 36,000  Level FlightAware
Sun 07:47:01 AM 54.0260 -11.0770 248° West 447 514 36,000  Level FlightAware
Sun 07:47:46 AM 53.9910 -11.2220 248° West 447 514 36,000  Level FlightAware
Sun 07:48:26 AM 53.9590 -11.3540 248° West 447 514 36,000  Level FlightAware
Sun 07:49:06 AM 53.9290 -11.4790 248° West 446 513 36,000  Level FlightAware
Sun 07:49:46 AM 53.8960 -11.6140 248° West 447 514 36,000  Level FlightAware
Sun 07:50:31 AM 53.8600 -11.7590 247° West 447 514 36,000  Level FlightAware
Sun 07:51:12 AM 53.8280 -11.8910 248° West 447 514 36,000  Level FlightAware
Sun 07:51:53 AM 53.7960 -12.0200 247° West 450 518 36,000  Level FlightAware
Sun 07:52:37 AM 53.7590 -12.1680 247° West 450 518 36,000  Level FlightAware
Sun 07:53:17 AM 53.7260 -12.2980 247° West 452 520 36,000  Level FlightAware
Sun 07:54:02 AM 53.6900 -12.4410 247° West 451 519 36,000  Level FlightAware
Sun 07:54:43 AM 53.6550 -12.5770 247° West 452 520 36,000  Level FlightAware
Sun 07:55:26 AM 53.6210 -12.7100 247° West 452 520 36,000  Level FlightAware
Sun 07:56:21 AM 53.5780 -12.8780 247° West 452 520 36,000  Level FlightAware
Sun 07:57:13 AM 53.5320 -13.0550 246° West 451 519 36,000  Level FlightAware
Sun 07:57:58 AM 53.4940 -13.2010 246° West 451 519 36,000  Level FlightAware
Sun 07:58:34 AM 53.4650 -13.3130 247° West 450 518 36,000  Level FlightAware
Sun 07:59:14 AM 53.4300 -13.4430 246° West 447 514 36,000  Level FlightAware
Sun 07:59:54 AM 53.3970 -13.5690 246° West 448 516 36,000  Level FlightAware
Sun 08:00:55 AM 53.3450 -13.7620 246° West 448 516 36,000  Level FlightAware
Sun 08:01:44 AM 53.3040 -13.9120 245° Southwest 450 518 36,000  Level FlightAware
Sun 08:03:08 AM 53.2390 -14.1550 246° West 450 518 36,000  Level FlightAware
Sun 08:03:44 AM 53.2130 -14.2520 246° West 450 518 36,000  Level FlightAware
Sun 08:04:32 AM 53.1790 -14.3820 246° West 450 518 36,000  Level FlightAware
Sun 08:05:08 AM 53.1530 -14.4790 246° West 450 518 36,000  Level FlightAware
Sun 08:05:56 AM 53.1180 -14.6080 246° West 450 518 36,000  Level FlightAware
Sun 08:06:32 AM 53.0920 -14.7050 246° West 450 518 36,000  Level FlightAware
Sun 08:07:20 AM 53.0580 -14.8340 246° West 450 518 36,000  Level FlightAware
Sun 08:07:56 AM 53.0320 -14.9310 246° West 450 518 36,000  Level FlightAware
Sun 08:08:44 AM 52.9970 -15.0600 246° West 450 518 36,000  Level FlightAware
Sun 08:09:20 AM 52.9720 -15.1570 247° West 450 518 36,000  Level FlightAware
Sun 08:10:08 AM 52.9370 -15.2850 246° West 450 518 36,000  Level FlightAware
Sun 08:10:44 AM 52.9110 -15.3820 246° West 450 518 36,000  Level FlightAware
Sun 08:11:37 AM 52.8730 -15.5240 246° West 450 518 36,000  Level FlightAware
Sun 08:14:00 AM 52.9057 -15.9808 277° West  Level Estimated
Sun 08:15:00 AM 52.9189 -16.1727 277° West  Level Estimated
Sun 08:16:00 AM 52.9318 -16.3647 276° West  Level Estimated
Sun 08:17:00 AM 52.8861 -16.5576 249° West  Level FlightAware
Sun 08:18:00 AM 52.8401 -16.7501 248° West  Level FlightAware
Sun 08:19:00 AM 52.7938 -16.9422 248° West  Level FlightAware
Sun 08:20:00 AM 52.7472 -17.1338 248° West  Level FlightAware
Sun 08:21:00 AM 52.7002 -17.3251 248° West  Level FlightAware
Sun 08:22:00 AM 52.6530 -17.5159 248° West  Level FlightAware
Sun 08:23:00 AM 52.6054 -17.7064 248° West  Level FlightAware
Sun 08:24:00 AM 52.5576 -17.8964 248° West  Level FlightAware
Sun 08:25:00 AM 52.5094 -18.0860 247° West  Level FlightAware
Sun 08:26:00 AM 52.4610 -18.2752 247° West  Level FlightAware
Sun 08:27:00 AM 52.4122 -18.4640 247° West  Level FlightAware
Sun 08:28:00 AM 52.3631 -18.6523 247° West  Level FlightAware
Sun 08:29:00 AM 52.3138 -18.8402 247° West  Level FlightAware
Sun 08:30:00 AM 52.2641 -19.0278 247° West  Level FlightAware
Sun 08:31:00 AM 52.2141 -19.2148 247° West  Level FlightAware
Sun 08:32:00 AM 52.1639 -19.4015 246° West  Level FlightAware
Sun 08:32:00 AM 52.0000 -20.0000 265° West 482 555 36,000  Level ETMS Enhanced
Sun 08:33:00 AM 52.1133 -19.5878 246° West  Level FlightAware
Sun 08:34:00 AM 52.0625 -19.7736 246° West  Level FlightAware
Sun 08:35:00 AM 52.0114 -19.9590 246° West  Level FlightAware
Sun 08:36:00 AM 51.9909 -20.1579 265° West  Level FlightAware
Sun 08:37:00 AM 51.9789 -20.3599 265° West  Level FlightAware
Sun 08:38:00 AM 51.9202 -21.2987 264° West 482 555 36,000  Level FlightAware
Sun 08:39:00 AM 51.9055 -21.5147 264° West 482 555 36,000  Level FlightAware
Sun 08:40:00 AM 51.8904 -21.7305 263° West 482 555 36,000  Level FlightAware
Sun 08:41:00 AM 51.8749 -21.9462 263° West 482 555 36,000  Level FlightAware
Sun 08:42:00 AM 51.8590 -22.1617 263° West 482 555 36,000  Level FlightAware
Sun 08:43:00 AM 51.8427 -22.3771 263° West 482 555 36,000  Level FlightAware
Sun 08:44:00 AM 51.8261 -22.5923 263° West 482 555 36,000  Level FlightAware
Sun 08:45:00 AM 51.8090 -22.8074 263° West 482 555 36,000  Level FlightAware
Sun 08:46:00 AM 51.7916 -23.0223 262° West 482 555 36,000  Level FlightAware
Sun 08:47:00 AM 51.7737 -23.2370 262° West 482 555 36,000  Level FlightAware
Sun 08:48:00 AM 51.7555 -23.4516 262° West 482 555 36,000  Level FlightAware
Sun 08:49:00 AM 51.7369 -23.6660 262° West 482 555 36,000  Level FlightAware
Sun 08:50:00 AM 51.7179 -23.8802 262° West 482 555 36,000  Level FlightAware
Sun 08:51:00 AM 51.6985 -24.0942 262° West 482 555 36,000  Level FlightAware
Sun 08:52:00 AM 51.6787 -24.3081 261° West 482 555 36,000  Level FlightAware
Sun 08:53:00 AM 51.6585 -24.5217 261° West 482 555 36,000  Level FlightAware
Sun 08:54:00 AM 51.6379 -24.7352 261° West 482 555 36,000  Level FlightAware
Sun 08:55:00 AM 51.6170 -24.9484 261° West 482 555 36,000  Level FlightAware
Sun 08:56:00 AM 51.5956 -25.1615 261° West 482 555 36,000  Level FlightAware
Sun 08:57:00 AM 51.5739 -25.3744 261° West 482 555 36,000  Level FlightAware
Sun 08:58:00 AM 51.5518 -25.5870 260° West 482 555 36,000  Level FlightAware
Sun 08:59:00 AM 51.5293 -25.7995 260° West 482 555 36,000  Level FlightAware
Sun 09:00:00 AM 51.5065 -26.0117 260° West 482 555 36,000  Level FlightAware
Sun 09:01:00 AM 51.4832 -26.2237 260° West 482 555 36,000  Level FlightAware
Sun 09:02:00 AM 51.4596 -26.4356 260° West 482 555 36,000  Level FlightAware
Sun 09:03:00 AM 51.4355 -26.6471 260° West 482 555 36,000  Level FlightAware
Sun 09:04:00 AM 51.4111 -26.8585 259° West 482 555 36,000  Level FlightAware
Sun 09:05:00 AM 51.3864 -27.0696 259° West 482 555 36,000  Level FlightAware
Sun 09:06:00 AM 51.3612 -27.2805 259° West 482 555 36,000  Level FlightAware
Sun 09:07:00 AM 51.3357 -27.4912 259° West 482 555 36,000  Level FlightAware
Sun 09:08:00 AM 51.3097 -27.7016 259° West 482 555 36,000  Level FlightAware
Sun 09:09:00 AM 51.2835 -27.9118 259° West 482 555 36,000  Level FlightAware
Sun 09:10:00 AM 51.2568 -28.1218 258° West 482 555 36,000  Level FlightAware
Sun 09:11:00 AM 51.2297 -28.3315 258° West 482 555 36,000  Level FlightAware
Sun 09:12:00 AM 51.2023 -28.5410 258° West 482 555 36,000  Level FlightAware
Sun 09:13:00 AM 51.1745 -28.7502 258° West 482 555 36,000  Level FlightAware
Sun 09:14:00 AM 51.1464 -28.9591 258° West 482 555 36,000  Level FlightAware
Sun 09:15:00 AM 51.1178 -29.1678 258° West 482 555 36,000  Level FlightAware
Sun 09:16:00 AM 51.0889 -29.3763 257° West 482 555 36,000  Level FlightAware
Sun 09:17:00 AM 51.0597 -29.5844 257° West 482 555 36,000  Level FlightAware
Sun 09:18:00 AM 51.0300 -29.7924 257° West 482 555 36,000 Level FlightAware
Sun 09:19:00 AM 51.0020 -29.9860 257° West  Level FlightAware
Sun 09:20:00 AM 50.9737 -30.1794 257° West  Level FlightAware
Sun 09:21:00 AM 50.9751 -30.1651 257° West  Level FlightAware
Sun 09:22:00 AM 50.9457 -30.3580 256° West  Level FlightAware
Sun 09:23:00 AM 50.9160 -30.5506 256° West  Level FlightAware
Sun 09:24:00 AM 50.8859 -30.7430 256° West  Level FlightAware
Sun 09:25:00 AM 50.8556 -30.9351 256° West  Level FlightAware
Sun 09:26:00 AM 50.8249 -31.1270 256° West  Level FlightAware
Sun 09:27:00 AM 50.7939 -31.3186 256° West  Level FlightAware
Sun 09:28:00 AM 50.7626 -31.5100 256° West  Level FlightAware
Sun 09:29:00 AM 50.7310 -31.7011 255° West  Level FlightAware
Sun 09:30:00 AM 50.6991 -31.8919 255° West  Level FlightAware
Sun 09:31:00 AM 50.6668 -32.0825 255° West  Level FlightAware
Sun 09:32:00 AM 50.6343 -32.2728 255° West  Level FlightAware
Sun 09:33:00 AM 50.6014 -32.4629 255° West  Level FlightAware
Sun 09:34:00 AM 50.5682 -32.6527 255° West  Level FlightAware
Sun 09:35:00 AM 50.5348 -32.8422 255° West  Level FlightAware
Sun 09:36:00 AM 50.5010 -33.0314 254° West  Level FlightAware
Sun 09:37:00 AM 50.4669 -33.2204 254° West  Level FlightAware
Sun 09:38:00 AM 50.4325 -33.4091 254° West  Level FlightAware
Sun 09:39:00 AM 50.3978 -33.5976 254° West  Level FlightAware
Sun 09:40:00 AM 50.3628 -33.7857 254° West  Level FlightAware
Sun 09:41:00 AM 50.3275 -33.9736 254° West  Level FlightAware
Sun 09:42:00 AM 50.2919 -34.1612 254° West  Level FlightAware
Sun 09:43:00 AM 50.2560 -34.3485 253° West  Level FlightAware
Sun 09:44:00 AM 50.2198 -34.5356 253° West  Level FlightAware
Sun 09:45:00 AM 50.1833 -34.7223 253° West  Level FlightAware
Sun 09:46:00 AM 50.1465 -34.9088 253° West  Level FlightAware
Sun 09:47:00 AM 50.1093 -35.0949 253° West  Level FlightAware
Sun 09:48:00 AM 50.0719 -35.2808 253° West  Level FlightAware
Sun 09:49:00 AM 50.0342 -35.4664 253° West  Level FlightAware
Sun 09:50:00 AM 49.9962 -35.6517 252° West  Level FlightAware
Sun 09:51:00 AM 49.9580 -35.8367 252° West  Level FlightAware
Sun 09:52:00 AM 49.9194 -36.0214 252° West  Level FlightAware
Sun 09:53:00 AM 49.8805 -36.2059 252° West  Level FlightAware
Sun 09:54:00 AM 49.8413 -36.3900 252° West  Level FlightAware
Sun 09:55:00 AM 49.8019 -36.5738 252° West  Level FlightAware
Sun 09:56:00 AM 49.7621 -36.7573 252° West  Level FlightAware
Sun 09:57:00 AM 49.7221 -36.9405 251° West  Level FlightAware
Sun 09:58:00 AM 49.6817 -37.1235 251° West  Level FlightAware
Sun 09:59:00 AM 49.6411 -37.3061 251° West  Level FlightAware
Sun 10:00:00 AM 49.6002 -37.4884 251° West  Level FlightAware
Sun 10:01:00 AM 49.5590 -37.6704 251° West  Level FlightAware
Sun 10:02:00 AM 49.5176 -37.8521 251° West  Level FlightAware
Sun 10:03:00 AM 49.4758 -38.0334 251° West  Level FlightAware
Sun 10:04:00 AM 49.4338 -38.2145 250° West  Level FlightAware
Sun 10:05:00 AM 49.3914 -38.3953 250° West  Level FlightAware
Sun 10:06:00 AM 49.3488 -38.5757 250° West  Level FlightAware
Sun 10:07:00 AM 49.3060 -38.7558 250° West  Level FlightAware
Sun 10:08:00 AM 49.2628 -38.9357 250° West  Level FlightAware
Sun 10:09:00 AM 49.2194 -39.1152 250° West  Level FlightAware
Sun 10:10:00 AM 49.1756 -39.2943 250° West  Level FlightAware
Sun 10:11:00 AM 49.1316 -39.4732 249° West  Level FlightAware
Sun 10:12:00 AM 49.0874 -39.6518 249° West  Level FlightAware
Sun 10:13:00 AM 49.0428 -39.8300 249° West  Level FlightAware
Sun 10:14:00 AM 48.9987 -40.0083 257° West  Level FlightAware
Sun 10:15:00 AM 48.9696 -40.1935 257° West  Level FlightAware
Sun 10:16:00 AM 48.9401 -40.3785 256° West  Level FlightAware
Sun 10:17:00 AM 48.9104 -40.5633 256° West  Level FlightAware
Sun 10:18:00 AM 48.8804 -40.7478 256° West  Level FlightAware
Sun 10:19:00 AM 48.8501 -40.9321 256° West  Level FlightAware
Sun 10:20:00 AM 48.8195 -41.1162 256° West  Level FlightAware
Sun 10:21:00 AM 48.7889 -41.2981 256° West  Level FlightAware
Sun 10:22:00 AM 48.7580 -41.4797 256° West  Level FlightAware
Sun 10:23:00 AM 48.7269 -41.6612 255° West  Level FlightAware
Sun 10:24:00 AM 48.6955 -41.8424 255° West  Level FlightAware
Sun 10:25:00 AM 48.6638 -42.0233 255° West  Level FlightAware
Sun 10:26:00 AM 48.6318 -42.2041 255° West  Level FlightAware
Sun 10:27:00 AM 48.5995 -42.3846 255° West  Level FlightAware
Sun 10:28:00 AM 48.5670 -42.5648 255° West  Level FlightAware
Sun 10:29:00 AM 48.5356 -42.7455 255° West  Level FlightAware
Sun 10:30:00 AM 48.5039 -42.9259 255° West  Level FlightAware
Sun 10:31:00 AM 48.4720 -43.1061 255° West  Level FlightAware
Sun 10:32:00 AM 48.4398 -43.2860 255° West  Level FlightAware
Sun 10:33:00 AM 48.4073 -43.4658 255° West  Level FlightAware
Sun 10:34:00 AM 48.3745 -43.6452 255° West  Level FlightAware
Sun 10:35:00 AM 48.3414 -43.8245 255° West  Level FlightAware
Sun 10:36:00 AM 48.3081 -44.0036 254° West  Level FlightAware
Sun 10:37:00 AM 48.2745 -44.1824 254° West  Level FlightAware
Sun 10:38:00 AM 48.2406 -44.3609 254° West  Level FlightAware
Sun 10:39:00 AM 48.2064 -44.5392 254° West  Level FlightAware
Sun 10:40:00 AM 48.1720 -44.7173 254° West  Level FlightAware
Sun 10:41:00 AM 48.1373 -44.8952 254° West  Level FlightAware
Sun 10:42:00 AM 48.1023 -45.0728 254° West  Level FlightAware
Sun 10:43:00 AM 48.0670 -45.2501 253° West  Level FlightAware
Sun 10:44:00 AM 48.0315 -45.4272 253° West  Level FlightAware
Sun 10:45:00 AM 47.9957 -45.6041 253° West  Level FlightAware
Sun 10:46:00 AM 47.9596 -45.7808 253° West  Level FlightAware
Sun 10:47:00 AM 47.9232 -45.9571 253° West  Level FlightAware
Sun 10:48:00 AM 47.8866 -46.1333 253° West  Level FlightAware
Sun 10:49:00 AM 47.8497 -46.3091 253° West  Level FlightAware
Sun 10:50:00 AM 47.8126 -46.4848 253° West  Level FlightAware
Sun 10:51:00 AM 47.7751 -46.6601 252° West  Level FlightAware
Sun 10:52:00 AM 47.7374 -46.8353 252° West  Level FlightAware
Sun 10:53:00 AM 47.6995 -47.0101 252° West  Level FlightAware
Sun 10:54:00 AM 47.6613 -47.1848 252° West  Level FlightAware
Sun 10:55:00 AM 47.6228 -47.3591 252° West  Level FlightAware
Sun 10:56:00 AM 47.5840 -47.5332 252° West  Level FlightAware
Sun 10:57:00 AM 47.5450 -47.7071 252° West  Level FlightAware
Sun 10:58:00 AM 47.5057 -47.8806 252° West  Level FlightAware
Sun 10:59:00 AM 47.4662 -48.0540 251° West  Level FlightAware
Sun 11:00:00 AM 47.4264 -48.2270 251° West  Level FlightAware
Sun 11:01:00 AM 47.3863 -48.3998 251° West  Level FlightAware
Sun 11:02:00 AM 47.3460 -48.5724 251° West  Level FlightAware
Sun 11:03:00 AM 47.3054 -48.7446 251° West  Level FlightAware
Sun 11:04:00 AM 47.2646 -48.9166 251° West  Level FlightAware
Sun 11:05:00 AM 47.2235 -49.0884 251° West  Level FlightAware
Sun 11:06:00 AM 47.1822 -49.2598 251° West  Level FlightAware
Sun 11:06:10 AM 47.3060 -48.9210 251° West 446 513 37,000  Level FlightAware
Sun 11:06:47 AM 47.2780 -49.0370 250° West 445 512 37,000  Level FlightAware
Sun 11:07:28 AM 47.2540 -49.1370 251° West 445 512 37,000  Level FlightAware
Sun 11:08:07 AM 47.2230 -49.2620 250° West 444 511 37,000  Level FlightAware
Sun 11:09:08 AM 47.1850 -49.4180 250° West 445 512 37,000  Level FlightAware
Sun 11:09:43 AM 47.1550 -49.5390 250° West 445 512 37,000  Level FlightAware
Sun 11:10:27 AM 47.1230 -49.6630 249° West 445 512 37,000  Level FlightAware
Sun 11:11:32 AM 47.0780 -49.8440 250° West 446 513 37,000  Level FlightAware
Sun 11:12:12 AM 47.0540 -49.9410 250° West 446 513 37,000  Level FlightAware
Sun 11:13:25 AM 47.0100 -50.1170 250° West 446 513 37,000 182 Level FlightAware
Sun 11:16:00 AM 46.9373 -50.5707 257° West  Level FlightAware
Sun 11:17:00 AM 46.9087 -50.7459 257° West  Level FlightAware
Sun 11:17:42 AM 46.9030 -50.9220 257° West 449 517 38,000  Level FlightAware
Sun 11:18:17 AM 46.8870 -51.0260 257° West 450 518 38,000  Level FlightAware
Sun 11:19:44 AM 46.8480 -51.2840 258° West 452 520 38,000  Level FlightAware
Sun 11:20:37 AM 46.8230 -51.4420 257° West 451 519 38,000  Level FlightAware
Sun 11:21:15 AM 46.8050 -51.5600 257° West 450 518 38,000  Level FlightAware
Sun 11:22:05 AM 46.7820 -51.7050 257° West 448 516 38,000  Level FlightAware
Sun 11:22:45 AM 46.7630 -51.8230 257° West 447 514 38,000  Level FlightAware
Sun 11:23:29 AM 46.7420 -51.9520 257° West 445 512 38,000  Level FlightAware
Sun 11:24:07 AM 46.7250 -52.0620 257° West 445 512 38,000  Level FlightAware
Sun 11:24:53 AM 46.7030 -52.1950 256° West 447 514 38,000  Level FlightAware
Sun 11:25:33 AM 46.6840 -52.3120 257° West 447 514 38,000  Level FlightAware
Sun 11:26:17 AM 46.6630 -52.4390 256° West 448 516 38,000  Level FlightAware
Sun 11:26:57 AM 46.6430 -52.5580 256° West 449 517 38,000  Level FlightAware
Sun 11:27:39 AM 46.6230 -52.6810 257° West 449 517 38,000  Level FlightAware
Sun 11:28:23 AM 46.6010 -52.8070 256° West 450 518 38,000  Level FlightAware
Sun 11:29:03 AM 46.5810 -52.9280 257° West 452 520 38,000  Level FlightAware
Sun 11:29:47 AM 46.5590 -53.0590 256° West 453 521 38,000  Level FlightAware
Sun 11:31:17 AM 46.5200 -53.2830 256° West 454 522 38,000  Level FlightAware
Sun 11:32:01 AM 46.4910 -53.4520 256° West 455 524 38,000  Level FlightAware
Sun 11:32:43 AM 46.4690 -53.5780 256° West 457 526 38,000  Level FlightAware
Sun 11:33:19 AM 46.4510 -53.6790 256° West 457 526 38,000  Level FlightAware
Sun 11:34:00 AM 46.4290 -53.8030 256° West 457 526 38,000  Level FlightAware
Sun 11:34:43 AM 46.4060 -53.9300 255° West 458 527 38,000  Level FlightAware
Sun 11:35:24 AM 46.3840 -54.0530 256° West 458 527 38,000  Level FlightAware
Sun 11:36:03 AM 46.3660 -54.1520 255° West 458 527 38,000  Level FlightAware
Sun 11:36:51 AM 46.3440 -54.2730 255° West 458 527 38,000  Level FlightAware
Sun 11:37:27 AM 46.3270 -54.3640 255° West 458 527 38,000  Level FlightAware
Sun 11:38:06 AM 46.2990 -54.5210 256° West 38,000  Level FlightAware
Sun 11:39:12 AM 46.2620 -54.7220 255° West 457 526 38,000  Level FlightAware
Sun 11:40:26 AM 46.2250 -54.9070 254° West 457 526 38,000  Level FlightAware
Sun 11:41:03 AM 46.2070 -54.9990 254° West 457 526 38,000  Level FlightAware
Sun 11:41:52 AM 46.1820 -55.1220 254° West 457 526 38,000  Level FlightAware
Sun 11:42:30 AM 46.1630 -55.2160 254° West 457 526 38,000  Level FlightAware
Sun 11:43:13 AM 46.1280 -55.4260 257° West 38,000  Level FlightAware
Sun 11:47:54 AM 45.9660 -56.2460 254° West 458 527 38,000  Level FlightAware
Sun 11:48:36 AM 45.9390 -56.3790 254° West 457 526 38,000  Level FlightAware
Sun 11:49:09 AM 45.9220 -56.4590 253° West 457 526 38,000  Level FlightAware
Sun 11:49:57 AM 45.8970 -56.5780 253° West 457 526 38,000  Level FlightAware
Sun 11:50:43 AM 45.8730 -56.6910 253° West 457 526 38,000  Level FlightAware
Sun 11:51:19 AM 45.8540 -56.7800 253° West 457 526 38,000  Level FlightAware
Sun 11:52:05 AM 45.8300 -56.8940 253° West 457 526 38,000  Level FlightAware
Sun 11:52:41 AM 45.8110 -56.9820 253° West 457 526 38,000  Level FlightAware
Sun 11:53:17 AM 45.7920 -57.0710 253° West 457 526 38,000  Level FlightAware
Sun 11:53:59 AM 45.7490 -57.2960 255° West 454 522 38,000  Level FlightAware
Sun 11:54:47 AM 45.7240 -57.4140 253° West 454 522 38,000  Level FlightAware
Sun 11:55:17 AM 45.6980 -57.5350 253° West 456 525 38,000  Level FlightAware
Sun 11:56:01 AM 45.6700 -57.6620 253° West 456 525 38,000  Level FlightAware
Sun 11:56:45 AM 45.6430 -57.7880 253° West 456 525 38,000  Level FlightAware
Sun 11:57:25 AM 45.6170 -57.9040 252° West 456 525 38,000  Level FlightAware
Sun 11:58:09 AM 45.5900 -58.0300 253° West 457 526 38,000  Level FlightAware
Sun 11:58:47 AM 45.5660 -58.1380 252° West 457 526 38,000  Level FlightAware
Sun 11:59:31 AM 45.5380 -58.2630 252° West 457 526 38,000  Level FlightAware
Sun 11:59:55 AM 45.5220 -58.3330 252° West 457 526 38,000  Level FlightAware
Sun 12:01:03 PM 45.4790 -58.5270 253° West 457 526 38,000  Level FlightAware
Sun 12:01:45 PM 45.4510 -58.6490 252° West 458 527 38,000  Level FlightAware
Sun 12:02:19 PM 45.4290 -58.7460 252° West 457 526 38,000  Level FlightAware
Sun 12:03:03 PM 45.4010 -58.8700 252° West 458 527 38,000  Level FlightAware
Sun 12:03:43 PM 45.3740 -58.9850 252° West 458 527 38,000  Level FlightAware
Sun 12:04:25 PM 45.3460 -59.1060 252° West 459 528 38,000  Level FlightAware
Sun 12:05:05 PM 45.3200 -59.2170 252° West 459 528 38,000  Level FlightAware
Sun 12:05:49 PM 45.2900 -59.3440 251° West 458 527 38,000  Level FlightAware
Sun 12:06:31 PM 45.2620 -59.4640 252° West 459 528 38,000  Level FlightAware
Sun 12:07:07 PM 45.2380 -59.5670 252° West 460 529 38,000  Level FlightAware
Sun 12:07:43 PM 45.2130 -59.6700 251° West 460 529 38,000  Level FlightAware
Sun 12:08:33 PM 45.1790 -59.8110 251° West 460 529 38,000  Level FlightAware
Sun 12:09:09 PM 45.1540 -59.9140 251° West 460 529 38,000  Level FlightAware
Sun 12:09:45 PM 45.1300 -60.0150 251° West 461 531 38,000  Level FlightAware
Sun 12:10:29 PM 45.0990 -60.1410 251° West 462 532 38,000  Level FlightAware
Sun 12:11:39 PM 45.0580 -60.3080 251° West 463 533 38,000  Level FlightAware
Sun 12:12:21 PM 45.0200 -60.4610 251° West 463 533 38,000  Level FlightAware
Sun 12:13:03 PM 44.9910 -60.5800 251° West 464 534 38,000  Level FlightAware
Sun 12:13:47 PM 44.9590 -60.7060 250° West 463 533 38,000  Level FlightAware
Sun 12:14:19 PM 44.9360 -60.7970 250° West 463 533 38,000  Level FlightAware
Sun 12:14:51 PM 44.9140 -60.8850 251° West 464 534 38,000  Level FlightAware
Sun 12:16:12 PM 44.8620 -61.0870 250° West 464 534 38,000  Level FlightAware
Sun 12:16:50 PM 44.8380 -61.1790 250° West 464 534 38,000  Level FlightAware
Sun 12:17:36 PM 44.8100 -61.2900 250° West 464 534 38,000  Level FlightAware
Sun 12:18:14 PM 44.7860 -61.3820 250° West 464 534 38,000  Level FlightAware
Sun 12:19:02 PM 44.7560 -61.4980 250° West 464 534 38,000  Level FlightAware
Sun 12:19:38 PM 44.7330 -61.5850 250° West 464 534 38,000  Level FlightAware
Sun 12:20:26 PM 44.7030 -61.7000 250° West 464 534 38,000  Level FlightAware
Sun 12:21:02 PM 44.6810 -61.7870 250° West 464 534 38,000  Level FlightAware
Sun 12:21:50 PM 44.6510 -61.9030 250° West 464 534 38,000  Level FlightAware
Sun 12:22:26 PM 44.6290 -61.9900 250° West 464 534 38,000  Level FlightAware
Sun 12:23:26 PM 44.5910 -62.1340 250° West 464 534 38,000  Level FlightAware
Sun 12:24:02 PM 44.5690 -62.2210 250° West 464 534 38,000  Level FlightAware
Sun 12:24:44 PM 44.4780 -62.5420 248° West 464 534 38,000  Level FlightAware
Sun 12:25:33 PM 44.4380 -62.6870 249° West 464 534 38,000  Level FlightAware
Sun 12:26:09 PM 44.4080 -62.7940 249° West 463 533 38,000  Level FlightAware
Sun 12:26:51 PM 44.3790 -62.9020 249° West 462 532 38,000  Level FlightAware
Sun 12:27:27 PM 44.3510 -63.0020 249° West 462 532 38,000  Level FlightAware
Sun 12:28:08 PM 44.3170 -63.1220 248° West 463 533 38,000  Level FlightAware
Sun 12:28:46 PM 44.2900 -63.2190 249° West 462 532 38,000  Level FlightAware
Sun 12:29:31 PM 44.2520 -63.3560 249° West 463 533 38,000  Level FlightAware
Sun 12:30:05 PM 44.2260 -63.4470 248° West 463 533 38,000  Level FlightAware
Sun 12:30:46 PM 44.1950 -63.5560 248° West 463 533 38,000  Level FlightAware
Sun 12:31:28 PM 44.1600 -63.6770 248° West 461 531 38,000  Level FlightAware
Sun 12:32:09 PM 44.1280 -63.7900 249° West 460 529 38,000  Level FlightAware
Sun 12:32:54 PM 44.0920 -63.9160 248° West 459 528 38,000  Level FlightAware
Sun 12:33:34 PM 44.0640 -64.0120 248° West 459 528 38,000  Level FlightAware
Sun 12:34:11 PM 44.0320 -64.1220 248° West 459 528 38,000  Level FlightAware
Sun 12:35:01 PM 43.9980 -64.2590 251° West 457 526 38,000  Level FlightAware
Sun 12:35:28 PM 43.9820 -64.3350 254° West 457 526 38,000  Level FlightAware
Sun 12:36:08 PM 43.9590 -64.4430 254° West 458 527 38,000  Level FlightAware
Sun 12:36:56 PM 43.9290 -64.5870 254° West 458 527 38,000  Level FlightAware
Sun 12:37:36 PM 43.9050 -64.7020 254° West 458 527 38,000  Level FlightAware
Sun 12:38:20 PM 43.8790 -64.8250 254° West 459 528 38,000  Level FlightAware
Sun 12:39:01 PM 43.8540 -64.9400 253° West 459 528 38,000  Level FlightAware
Sun 12:39:45 PM 43.8270 -65.0650 253° West 459 528 38,000  Level FlightAware
Sun 12:40:26 PM 43.8020 -65.1790 253° West 459 528 38,000  Level FlightAware
Sun 12:41:06 PM 43.7780 -65.2890 253° West 460 529 38,000  Level FlightAware
Sun 12:41:50 PM 43.7500 -65.4160 253° West 460 529 38,000  Level FlightAware
Sun 12:42:31 PM 43.7250 -65.5280 253° West 459 528 38,000  Level FlightAware
Sun 12:43:15 PM 43.6970 -65.6540 253° West 461 531 38,000  Level FlightAware
Sun 12:43:56 PM 43.6710 -65.7720 253° West 462 532 38,000  Level FlightAware
Sun 12:44:40 PM 43.6430 -65.8950 253° West 463 533 38,000  Level FlightAware
Sun 12:45:16 PM 43.6200 -65.9990 253° West 465 535 38,000  Level FlightAware
Sun 12:45:55 PM 43.5950 -66.1090 253° West 467 537 38,000  Level FlightAware
Sun 12:46:36 PM 43.5680 -66.2260 252° West 468 539 38,000  Level FlightAware
Sun 12:47:16 PM 43.5430 -66.3360 253° West 469 540 38,000  Level FlightAware
Sun 12:47:52 PM 43.5230 -66.4260 253° West 469 540 38,000  Level FlightAware
Sun 12:48:27 PM 43.5000 -66.5240 252° West 473 544 38,000  Level FlightAware
Sun 12:49:30 PM 43.4540 -66.7210 252° West 474 545 38,000  Level FlightAware
Sun 12:50:45 PM 43.4090 -66.9140 252° West 474 545 38,000  Level FlightAware
Sun 12:51:19 PM 43.3890 -66.9970 252° West 474 545 38,000  Level FlightAware
Sun 12:52:07 PM 43.3620 -67.1140 252° West 474 545 38,000  Level FlightAware
Sun 12:53:17 PM 43.3010 -67.3700 252° West 474 545 38,000  Level FlightAware
Sun 12:53:56 PM 43.2740 -67.4790 251° West 475 547 38,000  Level FlightAware
Sun 12:55:04 PM 43.2300 -67.6620 252° West 475 547 38,000  Level FlightAware
Sun 12:55:39 PM 43.2030 -67.7740 252° West 475 547 38,000  Level FlightAware
Sun 12:56:26 PM 43.1730 -67.8990 252° West 472 543 38,000  Level FlightAware
Sun 12:57:07 PM 43.1410 -68.0250 251° West 472 543 38,000  Level FlightAware
Sun 12:57:49 PM 43.1130 -68.1420 252° West 472 543 38,000  Level FlightAware
Sun 12:58:29 PM 43.0840 -68.2570 251° West 472 543 38,000  Level FlightAware
Sun 12:59:14 PM 43.0520 -68.3860 251° West 472 543 38,000  Level FlightAware
Sun 01:00:09 PM 43.0140 -68.5370 251° West 471 542 38,000  Level FlightAware
Sun 01:00:50 PM 42.9850 -68.6550 251° West 470 541 38,000  Level FlightAware
Sun 01:01:30 PM 42.9560 -68.7690 251° West 469 540 38,000  Level FlightAware
Sun 01:02:15 PM 42.9240 -68.8930 251° West 467 537 38,000  Level FlightAware
Sun 01:02:55 PM 42.8950 -69.0060 251° West 467 537 38,000  Level FlightAware
Sun 01:03:35 PM 42.8670 -69.1170 251° West 467 537 38,000  Level FlightAware
Sun 01:04:15 PM 42.8380 -69.2300 251° West 468 539 38,000  Level FlightAware
Sun 01:05:00 PM 42.8050 -69.3550 250° West 468 539 38,000  Level FlightAware
Sun 01:05:31 PM 42.7830 -69.4400 251° West 468 539 38,000  Level FlightAware
Sun 01:06:15 PM 42.7510 -69.5640 251° West 468 539 38,000  Level FlightAware
Sun 01:06:51 PM 42.7250 -69.6630 250° West 468 539 38,000  Level FlightAware
Sun 01:07:36 PM 42.6910 -69.7890 250° West 470 541 38,000 -533 Level FlightAware
Sun 01:08:21 PM 42.6580 -69.9140 250° West 471 542 37,200 -1,694 Descending FlightAware
Sun 01:09:01 PM 42.6280 -70.0270 250° West 475 547 35,600 -2,471 Descending FlightAware
Sun 01:09:46 PM 42.5950 -70.1510 250° West 475 547 33,700 -2,640 Descending FlightAware
Sun 01:10:16 PM 42.5720 -70.2370 250° West 475 547 32,300 -2,637 Descending FlightAware
Sun 01:11:17 PM 42.5330 -70.3810 250° West 480 552 29,700 -2,447 Descending FlightAware
Sun 01:11:59 PM 42.4960 -70.5180 250° West 480 552 28,100 -1,052 Descending FlightAware
Sun 01:12:54 PM 42.4510 -70.6830 250° West 483 556 28,000 -61 Descending FlightAware
Sun 01:13:38 PM 42.4180 -70.8030 250° West 484 557 28,000  Level FlightAware
Sun 01:14:14 PM 42.3890 -70.9070 249° West 484 557 28,000  Level FlightAware
Sun 01:15:00 PM 42.3520 -71.0440 250° West 495 570 28,000 -439 Level FlightAware
Sun 01:15:36 PM 42.3240 -71.1430 249° West 476 548 27,400 -1,974 Descending FlightAware
Sun 01:16:16 PM 42.2970 -71.2560 252° West 473 544 25,500 -2,571 Descending FlightAware
Sun 01:17:00 PM 42.2680 -71.3800 252° West 466 536 23,800 -1,814 Descending FlightAware
Sun 01:17:42 PM 42.2430 -71.4930 253° West 453 521 22,900 -1,231 Descending FlightAware
Sun 01:18:18 PM 42.2200 -71.5890 252° West 451 519 22,200 -1,098 Descending FlightAware
Sun 01:19:04 PM 42.1930 -71.7080 253° West 443 510 21,400 -1,116 Descending FlightAware
Sun 01:19:44 PM 42.1690 -71.8120 253° West 440 506 20,600 -1,125 Descending FlightAware
Sun 01:20:24 PM 42.1440 -71.9170 252° West 438 504 19,900 -1,059 Descending FlightAware
Sun 01:21:09 PM 42.1170 -72.0340 253° West 434 499 19,100 -514 Descending FlightAware
Sun 01:22:09 PM 42.0860 -72.1630 252° West 434 499 19,000 -63 Descending FlightAware
Sun 01:22:45 PM 42.0670 -72.2410 252° West 434 499 19,000  Level FlightAware
Sun 01:23:33 PM 42.0410 -72.3460 252° West 434 499 19,000  Level FlightAware
Sun 01:23:57 PM 42.0290 -72.3990 253° West 434 499 19,000  Level FlightAware
Sun 01:24:33 PM 42.0100 -72.4770 252° West 434 499 19,000 -1,748 Level FlightAware
Sun 01:25:40 PM 41.9564 -72.6578 252° West 414 476 16,000 -1,417 Descending Boston Center
Sun 01:26:40 PM 41.9142 -72.8306 252° West 414 476 16,000  Level Boston Center
Sun 01:27:40 PM 41.8803 -72.9756 253° West 409 471 16,000 -557 Level Boston Center
Sun 01:33:08 PM 41.5790 -73.6850 253° West 384 442 12,400 -814 Descending FlightAware
Sun 01:33:41 PM 41.5540 -73.7540 244° Southwest 374 430 11,100 -1,663 Descending FlightAware
Sun 01:34:31 PM 41.5180 -73.8560 245° Southwest 332 382 10,100 -943 Descending FlightAware
Sun 01:34:51 PM 41.5050 -73.8910 244° Southwest 314 361 10,000 -450 Descending FlightAware
Sun 01:35:11 PM 41.4924 -73.9254 244° Southwest 300 345 9,800 -500 Descending FlightAware
Sun 01:35:27 PM 41.4834 -73.9507 245° Southwest 283 326 9,700 -305 Descending FlightAware
Sun 01:36:10 PM 41.4620 -74.0080 244° Southwest 274 315 9,500 -1,268 Descending FlightAware
Sun 01:36:38 PM 41.4440 -74.0588 245° Southwest 269 310 8,200 -2,170 Descending FlightAware
Sun 01:36:57 PM 41.4342 -74.0854 244° Southwest 267 307 7,800 -1,286 Descending FlightAware
Sun 01:37:20 PM 41.4181 -74.1173 236° Southwest 267 307 7,300 -1,269 Descending FlightAware
Sun 01:37:49 PM 41.3922 -74.1513 225° Southwest 267 307 6,700 -941 Descending FlightAware
Sun 01:38:11 PM 41.3732 -74.1754 224° Southwest 265 305 6,500 -769 Descending FlightAware
Sun 01:38:28 PM 41.3575 -74.1948 223° Southwest 262 302 6,200 -1,200 Descending FlightAware
Sun 01:39:06 PM 41.3246 -74.2358 223° Southwest 257 296 5,400 -1,368 Descending FlightAware
Sun 01:39:25 PM 41.3053 -74.2514 211° Southwest 266 306 4,900 -1,371 Descending FlightAware
Sun 01:39:41 PM 41.2877 -74.2617 204° Southwest 269 310 4,600 -145 Descending FlightAware
Sun 01:40:48 PM 41.2094 -74.2773 189° South 266 306 4,700 71 Climbing FlightAware
Sun 01:41:05 PM 41.1924 -74.2676 157° South 245 282 4,700 -188 Level FlightAware
Sun 01:41:20 PM 41.1764 -74.2579 155° Southeast 244 281 4,600  Descending FlightAware
Sun 01:41:42 PM 41.1539 -74.2442 155° Southeast 241 277 4,700  Climbing FlightAware
Sun 01:41:59 PM 41.1373 -74.2341 155° Southeast 240 276 4,600  Descending FlightAware
Sun 01:42:14 PM 41.1215 -74.2243 155° Southeast 242 278 4,700  Climbing FlightAware
Sun 01:42:38 PM 41.0976 -74.2101 156° South 243 280 4,600 -150 Descending FlightAware
Sun 01:42:54 PM 41.0806 -74.1998 155° Southeast 244 281 4,600 -741 Level FlightAware
Sun 01:43:59 PM 41.0160 -74.1610 156° South 226 260 3,600 -789 Descending FlightAware
Sun 01:44:10 PM 41.0058 -74.1552 157° South 235 270 3,600 162 Level FlightAware
Sun 01:44:36 PM 40.9831 -74.1415 156° South 235 270 3,700  Climbing FlightAware
Sun 01:44:53 PM 40.9678 -74.1326 156° South 213 245 3,600 -154 Descending FlightAware
Sun 01:45:15 PM 40.9478 -74.1206 156° South 213 245 3,600 -794 Level FlightAware
Sun 01:46:01 PM 40.9067 -74.0956 155° Southeast 210 242 2,700 -767 Descending FlightAware
Sun 01:46:41 PM 40.8707 -74.0770 159° South 210 242 2,500 -333 Descending FlightAware
Sun 01:46:55 PM 40.8582 -74.0755 175° South 203 234 2,400 -333 Descending FlightAware
Sun 01:46:59 PM 40.8542 -74.0755 180° South 200 230 2,400 -600 Level FlightAware
Sun 01:47:05 PM 40.8484 -74.0758 182° South 195 224 2,300 -667 Descending FlightAware
Sun 01:47:17 PM 40.8386 -74.0788 193° South 184 212 2,200 -316 Descending FlightAware
Sun 01:47:24 PM 40.8333 -74.0815 201° Southwest 181 208 2,200  Level FlightAware
Sun 01:47:34 PM 40.8250 -74.0865 205° Southwest 177 204 2,200 -615 Level FlightAware
Sun 01:48:03 PM 40.8039 -74.1000 206° Southwest 178 205 1,800 -789 Descending FlightAware
Sun 01:48:12 PM 40.7975 -74.1040 205° Southwest 169 194 1,700 -960 Descending FlightAware
Sun 01:48:28 PM 40.7867 -74.1101 203° Southwest 163 188 1,400 -1,043 Descending FlightAware
Sun 01:48:35 PM 40.7821 -74.1129 205° Southwest 158 182 1,300 -800 Descending FlightAware
Sun 01:48:43 PM 40.7763 -74.1163 204° Southwest 153 176 1,200 -621 Descending FlightAware
Sun 01:49:04 PM 40.7630 -74.1244 205° Southwest 152 175 1,000 -621 Descending FlightAware
Sun 01:49:12 PM 40.7577 -74.1275 204° Southwest 147 169 900 -900 Descending FlightAware
Sun 01:49:24 PM 40.7507 -74.1318 205° Southwest 145 167 700 -889 Descending FlightAware
Sun 01:49:39 PM 40.7418 -74.1371 204° Southwest 135 155 500 -340 Descending FlightAware
Sun 01:50:17 PM 40.7230 -74.1480 204° Southwest 134 154 400 -158 Descending FlightAware

Login

Don't have an account? Register now (free) for customized features, flight alerts, and more!